createdAt,value
2022-09-15T00:00:24.162Z,17.56
2022-09-15T00:02:52.197Z,17.49
2022-09-15T00:05:20.591Z,17.59
2022-09-15T00:07:48.869Z,17.29
2022-09-15T00:10:17.447Z,17.44
2022-09-15T00:12:45.662Z,17.41
2022-09-15T00:15:17.637Z,17.56
2022-09-15T00:17:50.671Z,17.60
2022-09-15T00:20:19.502Z,17.53
2022-09-15T00:22:47.692Z,17.51
2022-09-15T00:25:16.165Z,17.30
2022-09-15T00:27:44.108Z,17.41
2022-09-15T00:30:12.576Z,17.33
2022-09-15T00:32:42.351Z,17.45
2022-09-15T00:35:10.432Z,17.57
2022-09-15T00:37:38.428Z,17.63
2022-09-15T00:40:07.399Z,17.66
2022-09-15T00:42:35.378Z,17.57
2022-09-15T00:45:04.693Z,17.56
2022-09-15T00:47:37.260Z,17.61
2022-09-15T00:50:09.328Z,17.56
2022-09-15T00:52:39.112Z,17.51
2022-09-15T00:55:09.433Z,17.49
2022-09-15T00:57:55.963Z,17.42
2022-09-15T01:00:26.032Z,17.35
2022-09-15T01:02:54.553Z,17.44
2022-09-15T01:05:26.206Z,17.41
2022-09-15T01:07:57.742Z,17.27
2022-09-15T01:10:28.825Z,17.26
2022-09-15T01:12:59.437Z,17.25
2022-09-15T01:15:30.506Z,17.24
2022-09-15T01:18:20.576Z,17.29
2022-09-15T01:21:02.057Z,17.03
2022-09-15T01:24:08.903Z,17.13
2022-09-15T01:27:30.492Z,17.15
2022-09-15T01:30:07.061Z,17.20
2022-09-15T01:33:06.185Z,17.12
2022-09-15T01:35:53.605Z,17.03
2022-09-15T01:38:30.093Z,16.96
2022-09-15T01:41:01.455Z,17.07
2022-09-15T01:43:30.633Z,17.08
2022-09-15T01:46:01.179Z,17.25
2022-09-15T01:48:29.619Z,17.09
2022-09-15T01:51:01.719Z,17.38
2022-09-15T01:53:30.260Z,17.40
2022-09-15T01:56:01.989Z,17.49
2022-09-15T01:58:30.001Z,17.59
2022-09-15T02:01:03.354Z,17.56
2022-09-15T02:03:35.094Z,16.98
2022-09-15T02:06:05.261Z,17.63
2022-09-15T02:08:38.302Z,17.60
2022-09-15T02:11:15.509Z,17.51
2022-09-15T02:13:48.796Z,17.39
2022-09-15T02:16:21.062Z,17.23
2022-09-15T02:18:56.545Z,17.33
2022-09-15T02:21:29.861Z,17.31
2022-09-15T02:24:03.539Z,17.33
2022-09-15T02:26:33.836Z,17.30
2022-09-15T02:29:06.408Z,17.30
2022-09-15T02:31:36.612Z,17.24
2022-09-15T02:34:07.408Z,17.27
2022-09-15T02:36:35.609Z,17.30
2022-09-15T02:39:05.932Z,17.28
2022-09-15T02:41:34.822Z,17.19
2022-09-15T02:44:03.753Z,17.23
2022-09-15T02:46:31.752Z,17.39
2022-09-15T02:49:01.042Z,17.23
2022-09-15T02:51:29.513Z,17.31
2022-09-15T02:53:57.422Z,17.30
2022-09-15T02:56:25.309Z,17.31
2022-09-15T02:58:53.279Z,17.35
2022-09-15T03:01:21.227Z,17.41
2022-09-15T03:03:49.178Z,17.40
2022-09-15T03:06:18.449Z,17.44
2022-09-15T03:08:49.692Z,17.40
2022-09-15T03:11:18.136Z,17.38
2022-09-15T03:13:46.344Z,17.46
2022-09-15T03:16:16.072Z,17.30
2022-09-15T03:18:44.222Z,17.30
2022-09-15T03:21:14.689Z,17.42
2022-09-15T03:23:44.649Z,17.44
2022-09-15T03:26:12.882Z,17.45
2022-09-15T03:28:41.138Z,17.40
2022-09-15T03:31:10.480Z,17.35
2022-09-15T03:33:40.296Z,17.26
2022-09-15T03:36:09.020Z,17.33
2022-09-15T03:38:36.916Z,17.37
2022-09-15T03:41:08.368Z,17.31
2022-09-15T03:43:37.003Z,17.20
2022-09-15T03:46:05.763Z,17.24
2022-09-15T03:48:35.052Z,17.24
2022-09-15T03:51:03.121Z,17.18
2022-09-15T03:53:34.305Z,17.21
2022-09-15T03:56:23.909Z,17.11
2022-09-15T03:58:52.682Z,17.16
2022-09-15T04:01:21.259Z,16.86
2022-09-15T04:03:51.367Z,17.16
2022-09-15T04:06:20.081Z,17.22
2022-09-15T04:08:48.306Z,17.22
2022-09-15T04:11:18.165Z,17.23
2022-09-15T04:13:46.365Z,17.26
2022-09-15T04:16:16.008Z,17.23
2022-09-15T04:18:44.364Z,17.21
2022-09-15T04:21:14.277Z,17.36
2022-09-15T04:23:42.570Z,17.37
2022-09-15T04:26:20.514Z,17.36
2022-09-15T04:28:49.807Z,17.49
2022-09-15T04:31:19.406Z,17.39
2022-09-15T04:33:48.120Z,17.45
2022-09-15T04:36:17.816Z,17.35
2022-09-15T04:38:46.343Z,17.33
2022-09-15T04:41:15.281Z,17.38
2022-09-15T04:43:43.962Z,17.49
2022-09-15T04:46:14.229Z,17.46
2022-09-15T04:48:42.597Z,17.44
2022-09-15T04:51:13.401Z,17.38
2022-09-15T04:53:41.734Z,17.50
2022-09-15T04:56:11.220Z,17.46
2022-09-15T04:58:39.801Z,17.43
2022-09-15T05:01:13.842Z,17.46
2022-09-15T05:03:42.487Z,17.51
2022-09-15T05:06:13.250Z,17.46
2022-09-15T05:08:41.429Z,17.48
2022-09-15T05:11:10.708Z,17.54
2022-09-15T05:13:39.418Z,17.61
2022-09-15T05:16:09.237Z,17.67
2022-09-15T05:18:39.065Z,17.58
2022-09-15T05:21:08.229Z,17.83
2022-09-15T05:23:36.765Z,17.87
2022-09-15T05:26:06.163Z,17.81
2022-09-15T05:28:35.645Z,17.90
2022-09-15T05:31:08.159Z,17.89
2022-09-15T05:33:36.499Z,17.91
2022-09-15T05:36:07.177Z,17.97
2022-09-15T05:38:35.207Z,18.00
2022-09-15T05:41:03.939Z,18.06
2022-09-15T05:43:32.198Z,18.12
2022-09-15T05:46:00.143Z,17.97
2022-09-15T05:48:28.047Z,17.90
2022-09-15T05:50:56.488Z,18.02
2022-09-15T05:53:26.420Z,18.03
2022-09-15T05:55:56.161Z,17.89
2022-09-15T05:58:24.296Z,17.95
2022-09-15T06:00:53.319Z,18.03
2022-09-15T06:03:22.346Z,18.09
2022-09-15T06:05:50.557Z,18.02
2022-09-15T06:08:18.464Z,18.08
2022-09-15T06:10:49.167Z,18.21
2022-09-15T06:13:17.042Z,18.30
2022-09-15T06:15:45.033Z,18.64
2022-09-15T06:18:12.967Z,18.68
2022-09-15T06:20:40.890Z,18.81
2022-09-15T06:23:08.917Z,18.96
2022-09-15T06:25:36.824Z,19.11
2022-09-15T06:28:06.072Z,19.10
2022-09-15T06:30:33.953Z,19.05
2022-09-15T06:33:01.840Z,18.83
2022-09-15T06:35:29.730Z,18.94
2022-09-15T06:37:57.721Z,19.03
2022-09-15T06:40:26.926Z,19.01
2022-09-15T06:42:57.022Z,18.93
2022-09-15T06:45:26.298Z,18.88
2022-09-15T06:48:13.464Z,18.94
2022-09-15T06:50:42.069Z,19.00
2022-09-15T06:53:09.986Z,19.09
2022-09-15T06:55:37.995Z,18.99
2022-09-15T06:58:05.972Z,18.99
2022-09-15T07:00:35.209Z,18.84
2022-09-15T07:03:03.738Z,18.76
2022-09-15T07:05:31.726Z,18.76
2022-09-15T07:07:59.636Z,18.85
2022-09-15T07:10:27.522Z,18.95
2022-09-15T07:12:55.568Z,18.91
2022-09-15T07:15:25.961Z,18.92
2022-09-15T07:17:55.243Z,19.05
2022-09-15T07:20:23.165Z,19.09
2022-09-15T07:22:51.268Z,19.12
2022-09-15T07:25:19.149Z,19.36
2022-09-15T07:27:47.049Z,19.57
2022-09-15T07:30:15.062Z,19.58
2022-09-15T07:32:42.957Z,19.55
2022-09-15T07:35:12.598Z,19.67
2022-09-15T07:37:40.563Z,19.73
2022-09-15T07:40:09.706Z,19.68
2022-09-15T07:42:37.662Z,19.60
2022-09-15T07:45:06.372Z,19.73
2022-09-15T07:47:34.254Z,19.94
2022-09-15T07:50:02.474Z,19.54
2022-09-15T07:52:31.947Z,19.67
2022-09-15T07:54:59.985Z,19.79
2022-09-15T07:57:27.959Z,19.71
2022-09-15T07:59:55.881Z,19.56
2022-09-15T08:02:24.021Z,19.58
2022-09-15T08:04:53.140Z,19.56
2022-09-15T08:07:21.061Z,19.63
2022-09-15T08:09:50.413Z,19.53
2022-09-15T08:12:18.964Z,19.62
2022-09-15T08:14:46.864Z,19.61
2022-09-15T08:17:14.784Z,19.67
2022-09-15T08:19:42.676Z,19.63
2022-09-15T08:22:10.632Z,19.63
2022-09-15T08:24:38.548Z,19.40
2022-09-15T08:27:07.838Z,19.45
2022-09-15T08:29:35.767Z,19.44
2022-09-15T08:32:03.809Z,19.55
2022-09-15T08:34:31.944Z,19.60
2022-09-15T08:36:59.858Z,19.59
2022-09-15T08:39:27.737Z,19.69
2022-09-15T08:41:56.304Z,19.60
2022-09-15T08:44:36.121Z,18.96
2022-09-15T08:47:06.962Z,19.43
2022-09-15T08:49:51.669Z,19.45
2022-09-15T08:52:23.428Z,19.38
2022-09-15T08:54:52.178Z,19.39
2022-09-15T08:57:21.629Z,19.36
2022-09-15T08:59:50.897Z,19.26
2022-09-15T09:02:45.315Z,19.30
2022-09-15T09:05:29.512Z,19.33
2022-09-15T09:08:23.308Z,19.19
2022-09-15T09:10:53.979Z,18.91
2022-09-15T09:13:35.353Z,18.89
2022-09-15T09:16:21.365Z,18.76
2022-09-15T09:19:16.548Z,18.65
2022-09-15T09:21:47.940Z,18.60
2022-09-15T09:24:17.921Z,18.35
2022-09-15T09:26:50.161Z,18.21
2022-09-15T09:29:19.798Z,18.01
2022-09-15T09:31:50.637Z,18.01
2022-09-15T09:34:22.977Z,17.96
2022-09-15T09:36:54.494Z,17.83
2022-09-15T09:39:22.704Z,17.67
2022-09-15T09:41:51.379Z,17.64
2022-09-15T09:44:20.290Z,17.43
2022-09-15T09:46:50.088Z,17.53
2022-09-15T09:49:22.990Z,17.49
2022-09-15T09:51:52.991Z,17.53
2022-09-15T09:54:22.217Z,17.49
2022-09-15T09:56:51.040Z,17.37
2022-09-15T09:59:35.550Z,17.49
2022-09-15T10:02:23.279Z,17.31
2022-09-15T10:04:53.087Z,17.33
2022-09-15T10:07:23.092Z,17.35
2022-09-15T10:09:54.053Z,17.32
2022-09-15T10:12:28.645Z,17.33
2022-09-15T10:14:58.669Z,17.28
2022-09-15T10:17:29.448Z,17.04
2022-09-15T10:19:58.761Z,17.04
2022-09-15T10:22:32.761Z,17.24
2022-09-15T10:25:01.871Z,17.26
2022-09-15T10:27:32.033Z,17.51
2022-09-15T10:30:01.605Z,17.66
2022-09-15T10:32:32.333Z,17.65
2022-09-15T10:35:06.160Z,17.69
2022-09-15T10:37:37.782Z,17.78
2022-09-15T10:40:28.331Z,17.66
2022-09-15T10:43:00.428Z,17.57
2022-09-15T10:45:33.201Z,17.57
2022-09-15T10:48:22.509Z,17.71
2022-09-15T10:50:55.708Z,17.79
2022-09-15T10:53:36.865Z,17.70
2022-09-15T10:56:11.982Z,17.72
2022-09-15T10:59:00.888Z,17.67
2022-09-15T11:01:50.365Z,17.61
2022-09-15T11:04:38.610Z,17.69
2022-09-15T11:07:11.994Z,17.83
2022-09-15T11:09:44.237Z,17.81
2022-09-15T11:12:29.462Z,17.94
2022-09-15T11:15:13.422Z,17.80
2022-09-15T11:17:50.009Z,17.89
2022-09-15T11:20:39.683Z,17.88
2022-09-15T11:23:13.952Z,17.97
2022-09-15T11:25:44.722Z,17.92
2022-09-15T11:28:18.207Z,17.89
2022-09-15T11:30:53.089Z,18.04
2022-09-15T11:33:24.051Z,18.13
2022-09-15T11:35:56.751Z,18.16
2022-09-15T11:38:32.252Z,18.12
2022-09-15T11:41:15.593Z,18.04
2022-09-15T11:43:49.671Z,18.20
2022-09-15T11:46:22.321Z,18.00
2022-09-15T11:48:55.100Z,18.26
2022-09-15T11:51:25.754Z,18.34
2022-09-15T11:53:57.229Z,18.18
2022-09-15T11:56:27.719Z,18.19
2022-09-15T11:59:03.990Z,18.08
2022-09-15T12:01:35.206Z,18.21
2022-09-15T12:04:05.873Z,18.20
2022-09-15T12:06:43.317Z,18.19
2022-09-15T12:09:14.437Z,18.39
2022-09-15T12:11:44.377Z,18.45
2022-09-15T12:14:16.471Z,18.52
2022-09-15T12:16:44.721Z,18.26
2022-09-15T12:19:16.292Z,18.36
2022-09-15T12:21:51.227Z,18.45
2022-09-15T12:24:24.026Z,18.04
2022-09-15T12:26:52.106Z,18.61
2022-09-15T12:29:41.937Z,18.70
2022-09-15T12:32:22.342Z,18.62
2022-09-15T12:34:59.336Z,18.61
2022-09-15T12:37:32.110Z,18.60
2022-09-15T12:40:00.172Z,18.75
2022-09-15T12:42:29.826Z,18.82
2022-09-15T12:44:59.798Z,18.89
2022-09-15T12:47:33.818Z,18.96
2022-09-15T12:50:06.733Z,18.99
2022-09-15T12:52:43.494Z,19.15
2022-09-15T12:55:19.123Z,19.33
2022-09-15T12:57:52.700Z,19.20
2022-09-15T13:00:37.965Z,19.15
2022-09-15T13:03:28.289Z,19.64
2022-09-15T13:06:18.251Z,19.85
2022-09-15T13:12:01.840Z,19.97
2022-09-15T13:14:50.110Z,19.53
2022-09-15T13:17:37.745Z,19.86
2022-09-15T13:20:27.426Z,19.89
2022-09-15T13:23:15.424Z,20.06
2022-09-15T13:26:04.589Z,20.34
2022-09-15T13:28:54.138Z,20.43
2022-09-15T13:31:49.686Z,20.52
2022-09-15T13:35:06.872Z,20.46
2022-09-15T13:38:24.007Z,20.24
2022-09-15T13:41:28.401Z,20.06
2022-09-15T13:44:27.301Z,20.27
2022-09-15T13:47:24.522Z,20.31
2022-09-15T13:50:16.062Z,20.19
2022-09-15T13:53:24.178Z,20.15
2022-09-15T13:56:20.558Z,20.34
2022-09-15T13:59:15.457Z,20.08
2022-09-15T14:02:02.897Z,19.97
2022-09-15T14:04:51.901Z,20.02
2022-09-15T14:07:38.323Z,19.72
2022-09-15T14:10:26.640Z,19.54
2022-09-15T14:13:15.505Z,19.46
2022-09-15T14:16:08.030Z,19.26
2022-09-15T14:18:58.485Z,19.02
2022-09-15T14:21:49.015Z,18.86
2022-09-15T14:24:41.481Z,18.54
2022-09-15T14:27:29.903Z,18.55
2022-09-15T14:30:20.668Z,18.41
2022-09-15T14:33:14.206Z,18.68
2022-09-15T14:36:00.645Z,19.23
2022-09-15T14:39:04.142Z,19.37
2022-09-15T14:41:51.462Z,19.59
2022-09-15T14:47:46.919Z,19.27
2022-09-15T14:50:35.120Z,19.24
2022-09-15T14:53:22.917Z,19.58
2022-09-15T14:56:11.583Z,19.71
2022-09-15T14:59:00.758Z,19.78
2022-09-15T15:01:50.821Z,19.89
2022-09-15T15:04:41.253Z,20.15
2022-09-15T15:07:30.288Z,20.07
2022-09-15T15:10:20.437Z,20.12
2022-09-15T15:13:08.347Z,19.65
2022-09-15T15:15:54.930Z,19.87
2022-09-15T15:18:42.624Z,19.71
2022-09-15T15:21:37.534Z,19.70
2022-09-15T15:24:25.346Z,19.52
2022-09-15T15:27:41.665Z,19.56
2022-09-15T15:30:35.757Z,19.47
2022-09-15T15:33:26.176Z,19.36
2022-09-15T15:36:13.480Z,19.29
2022-09-15T15:39:00.944Z,19.35
2022-09-15T15:44:40.549Z,19.40
2022-09-15T15:47:29.150Z,19.27
2022-09-15T15:50:20.821Z,19.20
2022-09-15T15:53:07.211Z,19.14
2022-09-15T15:55:55.108Z,19.14
2022-09-15T15:58:42.847Z,19.08
2022-09-15T16:01:29.584Z,19.06
2022-09-15T16:04:15.909Z,19.07
2022-09-15T16:07:02.318Z,18.99
2022-09-15T16:09:49.374Z,18.74
2022-09-15T16:12:35.852Z,18.69
2022-09-15T16:15:23.876Z,18.67
2022-09-15T16:18:10.334Z,18.65
2022-09-15T16:20:56.909Z,18.39
2022-09-15T16:23:43.220Z,18.50
2022-09-15T16:26:31.229Z,18.61
2022-09-15T16:29:17.490Z,18.38
2022-09-15T16:32:05.992Z,18.42
2022-09-15T16:34:54.292Z,18.35
2022-09-15T16:37:40.881Z,18.24
2022-09-15T16:40:27.252Z,18.12
2022-09-15T16:43:15.082Z,18.13
2022-09-15T16:46:01.790Z,18.08
2022-09-15T16:48:49.656Z,18.03
2022-09-15T16:51:36.009Z,18.00
2022-09-15T16:54:22.709Z,17.94
2022-09-15T16:57:09.147Z,17.86
2022-09-15T16:59:55.428Z,17.79
2022-09-15T17:02:41.780Z,17.84
2022-09-15T17:05:31.428Z,17.71
2022-09-15T17:08:18.875Z,17.63
2022-09-15T17:11:06.465Z,17.58
2022-09-15T17:13:53.312Z,17.47
2022-09-15T17:16:40.110Z,17.44
2022-09-15T17:19:26.588Z,17.35
2022-09-15T17:22:14.344Z,17.41
2022-09-15T17:25:00.609Z,17.35
2022-09-15T17:27:46.880Z,17.13
2022-09-15T17:30:33.419Z,16.92
2022-09-15T17:33:21.033Z,16.95
2022-09-15T17:36:07.864Z,16.84
2022-09-15T17:38:55.760Z,16.83
2022-09-15T17:41:44.531Z,17.08
2022-09-15T17:44:33.248Z,16.95
2022-09-15T17:47:22.302Z,16.93
2022-09-15T17:50:09.548Z,16.71
2022-09-15T17:52:56.479Z,16.68
2022-09-15T17:55:44.636Z,16.58
2022-09-15T17:58:31.893Z,16.48
2022-09-15T18:01:18.363Z,16.51
2022-09-15T18:04:04.724Z,16.47
2022-09-15T18:06:50.987Z,16.48
2022-09-15T18:09:37.595Z,16.43
2022-09-15T18:12:25.796Z,16.44
2022-09-15T18:15:18.662Z,16.50
2022-09-15T18:18:08.637Z,16.68
2022-09-15T18:20:56.761Z,16.61
2022-09-15T18:23:45.140Z,16.61
2022-09-15T18:26:32.464Z,16.46
2022-09-15T18:29:19.992Z,16.43
2022-09-15T18:32:06.427Z,16.48
2022-09-15T18:34:53.025Z,16.52
2022-09-15T18:37:39.751Z,16.46
2022-09-15T18:40:27.240Z,16.76
2022-09-15T18:43:13.684Z,16.79
2022-09-15T18:46:02.227Z,16.64
2022-09-15T18:48:48.773Z,16.77
2022-09-15T18:51:51.196Z,16.64
2022-09-15T18:54:38.757Z,16.74
2022-09-15T18:57:24.891Z,16.68
2022-09-15T19:00:13.840Z,16.71
2022-09-15T19:03:02.892Z,16.74
2022-09-15T19:05:50.551Z,16.48
2022-09-15T19:08:37.346Z,16.27
2022-09-15T19:11:23.640Z,16.22
2022-09-15T19:14:10.077Z,16.19
2022-09-15T19:16:57.874Z,16.31
2022-09-15T19:19:47.253Z,16.42
2022-09-15T19:22:33.580Z,16.44
2022-09-15T19:25:20.484Z,16.37
2022-09-15T19:28:06.956Z,16.38
2022-09-15T19:30:53.372Z,16.41
2022-09-15T19:33:40.312Z,16.58
2022-09-15T19:36:28.961Z,16.35
2022-09-15T19:39:15.891Z,16.53
2022-09-15T19:42:02.296Z,16.43
2022-09-15T19:44:49.515Z,16.42
2022-09-15T19:47:36.464Z,16.37
2022-09-15T19:50:23.324Z,16.37
2022-09-15T19:53:11.247Z,16.34
2022-09-15T19:55:57.884Z,16.12
2022-09-15T19:58:44.614Z,16.19
2022-09-15T20:01:32.690Z,16.24
2022-09-15T20:04:19.536Z,16.14
2022-09-15T20:07:06.119Z,16.16
2022-09-15T20:09:53.950Z,16.06
2022-09-15T20:12:40.345Z,15.98
2022-09-15T20:15:26.527Z,15.90
2022-09-15T20:18:13.473Z,15.86
2022-09-15T20:21:00.437Z,15.67
2022-09-15T20:23:47.469Z,15.55
2022-09-15T20:26:35.226Z,15.51
2022-09-15T20:29:23.194Z,15.06
2022-09-15T20:32:09.943Z,15.15
2022-09-15T20:34:57.001Z,14.78
2022-09-15T20:37:43.360Z,15.05
2022-09-15T20:40:29.696Z,15.01
2022-09-15T20:43:18.012Z,15.05
2022-09-15T20:46:06.160Z,14.92
2022-09-15T20:48:52.934Z,14.84
2022-09-15T20:51:39.477Z,14.85
2022-09-15T20:54:26.082Z,14.85
2022-09-15T20:57:12.351Z,14.78
2022-09-15T21:00:00.078Z,14.73
2022-09-15T21:02:46.451Z,14.69
2022-09-15T21:05:33.221Z,14.52
2022-09-15T21:08:19.560Z,14.44
2022-09-15T21:11:08.932Z,14.28
2022-09-15T21:13:56.805Z,14.02
2022-09-15T21:16:44.642Z,13.88
2022-09-15T21:19:32.021Z,13.72
2022-09-15T21:22:18.685Z,13.71
2022-09-15T21:25:05.299Z,13.64
2022-09-15T21:27:51.567Z,13.49
2022-09-15T21:30:38.400Z,13.45
2022-09-15T21:33:26.101Z,13.38
2022-09-15T21:36:14.648Z,13.35
2022-09-15T21:39:02.890Z,13.32
2022-09-15T21:41:49.763Z,13.36
2022-09-15T21:44:36.242Z,13.46
2022-09-15T21:47:22.483Z,13.40
2022-09-15T21:50:11.218Z,13.37
2022-09-15T21:52:57.928Z,13.30
2022-09-15T21:55:44.249Z,13.27
2022-09-15T21:58:38.961Z,13.09
2022-09-15T22:01:29.897Z,13.01
2022-09-15T22:04:16.566Z,12.77
2022-09-15T22:07:04.462Z,12.60
2022-09-15T22:09:51.071Z,12.39
2022-09-15T22:12:37.663Z,12.25
2022-09-15T22:15:24.981Z,12.25
2022-09-15T22:18:11.401Z,11.96
2022-09-15T22:21:08.233Z,12.00
2022-09-15T22:23:57.079Z,11.95
2022-09-15T22:26:43.843Z,11.76
2022-09-15T22:29:30.453Z,11.31
2022-09-15T22:32:16.668Z,11.62
2022-09-15T22:35:02.878Z,11.51
2022-09-15T22:37:49.219Z,11.39
2022-09-15T22:40:37.559Z,11.65
2022-09-15T22:43:24.310Z,11.48
2022-09-15T22:46:11.215Z,11.35
2022-09-15T22:48:58.192Z,11.29
2022-09-15T22:51:44.372Z,11.19
2022-09-15T22:54:30.643Z,11.12
2022-09-15T22:57:18.369Z,11.06
2022-09-15T23:00:05.020Z,10.97
2022-09-15T23:02:51.895Z,11.08
2022-09-15T23:05:38.905Z,10.99
2022-09-15T23:08:25.198Z,10.87
2022-09-15T23:11:13.521Z,10.82
2022-09-15T23:14:02.698Z,10.64
2022-09-15T23:16:49.209Z,10.74
2022-09-15T23:19:35.324Z,10.78
2022-09-15T23:22:22.528Z,10.88
2022-09-15T23:25:10.015Z,10.90
2022-09-15T23:27:56.341Z,11.13
2022-09-15T23:30:43.968Z,11.45
2022-09-15T23:33:32.118Z,11.47
2022-09-15T23:36:20.173Z,11.39
2022-09-15T23:39:06.773Z,11.28
2022-09-15T23:41:53.159Z,11.40
2022-09-15T23:44:39.419Z,11.35
2022-09-15T23:47:26.987Z,11.35
2022-09-15T23:50:13.359Z,11.28
2022-09-15T23:52:59.585Z,11.21
2022-09-15T23:55:46.272Z,11.19
2022-09-15T23:58:32.659Z,11.16
